createdAt,value
2023-02-21T00:02:35.053Z,8.38
2023-02-21T00:05:20.392Z,7.40
2023-02-21T00:08:05.580Z,6.78
2023-02-21T00:10:50.620Z,6.60
2023-02-21T00:13:35.647Z,7.07
2023-02-21T00:16:21.223Z,6.70
2023-02-21T00:19:06.199Z,6.60
2023-02-21T00:21:51.201Z,6.93
2023-02-21T00:24:37.428Z,6.20
2023-02-21T00:27:23.016Z,6.82
2023-02-21T00:30:08.811Z,6.28
2023-02-21T00:32:54.742Z,6.82
2023-02-21T00:35:40.020Z,6.68
2023-02-21T00:38:26.437Z,6.28
2023-02-21T00:41:12.011Z,6.68
2023-02-21T00:43:57.265Z,7.82
2023-02-21T00:46:42.132Z,5.53
2023-02-21T00:49:30.012Z,6.25
2023-02-21T00:52:15.076Z,5.60
2023-02-21T00:54:59.803Z,6.88
2023-02-21T00:57:45.172Z,6.38
2023-02-21T01:00:39.010Z,6.35
2023-02-21T01:03:24.540Z,6.97
2023-02-21T01:06:11.778Z,6.80
2023-02-21T01:09:00.265Z,6.18
2023-02-21T01:11:45.388Z,6.20
2023-02-21T01:14:30.383Z,7.07
2023-02-21T01:17:15.793Z,6.88
2023-02-21T01:20:01.985Z,6.05
2023-02-21T01:22:47.504Z,6.07
2023-02-21T01:25:33.033Z,6.60
2023-02-21T01:28:17.756Z,6.32
2023-02-21T01:31:02.456Z,5.85
2023-02-21T01:33:47.290Z,7.15
2023-02-21T01:36:32.097Z,7.22
2023-02-21T01:39:17.237Z,5.78
2023-02-21T01:42:02.158Z,6.07
2023-02-21T01:44:51.730Z,6.80
2023-02-21T01:47:37.427Z,5.95
2023-02-21T01:50:27.960Z,7.13
2023-02-21T01:53:13.001Z,5.88
2023-02-21T01:55:59.303Z,7.78
2023-02-21T01:58:45.656Z,6.15
2023-02-21T02:01:37.675Z,6.78
2023-02-21T02:04:22.795Z,6.97
2023-02-21T02:07:08.198Z,6.72
2023-02-21T02:09:53.066Z,6.88
2023-02-21T02:12:55.933Z,6.13
2023-02-21T02:15:34.919Z,6.18
2023-02-21T02:18:32.668Z,7.70
2023-02-21T02:21:23.604Z,7.05
2023-02-21T02:24:14.873Z,7.25
2023-02-21T02:26:50.554Z,7.07
2023-02-21T02:29:54.381Z,6.50
2023-02-21T02:32:37.998Z,6.70
2023-02-21T02:35:32.222Z,6.80
2023-02-21T02:38:08.595Z,7.78
2023-02-21T02:40:40.901Z,6.75
2023-02-21T02:43:17.165Z,6.20
2023-02-21T02:45:51.854Z,7.05
2023-02-21T02:48:22.653Z,6.55
2023-02-21T02:50:52.537Z,6.88
2023-02-21T02:53:26.901Z,6.93
2023-02-21T02:55:57.152Z,7.30
2023-02-21T02:58:26.077Z,7.63
2023-02-21T03:01:08.001Z,6.85
2023-02-21T03:04:06.705Z,9.25
2023-02-21T03:06:33.075Z,7.80
2023-02-21T03:09:19.215Z,9.23
2023-02-21T03:12:09.562Z,7.18
2023-02-21T03:14:55.658Z,7.47
2023-02-21T03:17:23.911Z,6.95
2023-02-21T03:19:51.880Z,6.07
2023-02-21T03:22:21.404Z,8.93
2023-02-21T03:24:49.591Z,7.88
2023-02-21T03:27:17.342Z,8.52
2023-02-21T03:29:44.208Z,7.10
2023-02-21T03:32:32.957Z,8.70
2023-02-21T03:34:59.406Z,10.33
2023-02-21T03:37:30.728Z,8.68
2023-02-21T03:39:57.208Z,6.97
2023-02-21T03:42:23.630Z,8.13
2023-02-21T03:44:50.040Z,10.27
2023-02-21T03:47:16.650Z,7.25
2023-02-21T03:49:43.135Z,7.95
2023-02-21T03:52:12.984Z,7.25
2023-02-21T03:54:40.270Z,7.43
2023-02-21T03:57:06.945Z,7.28
2023-02-21T03:59:33.520Z,7.33
2023-02-21T04:02:00.055Z,8.40
2023-02-21T04:04:26.522Z,7.25
2023-02-21T04:06:52.892Z,7.55
2023-02-21T04:09:19.349Z,6.78
2023-02-21T04:11:46.257Z,6.97
2023-02-21T04:14:13.426Z,7.78
2023-02-21T04:16:40.225Z,7.93
2023-02-21T04:19:07.792Z,7.18
2023-02-21T04:21:34.304Z,8.30
2023-02-21T04:24:00.818Z,8.43
2023-02-21T04:26:29.903Z,10.20
2023-02-21T04:28:56.565Z,7.78
2023-02-21T04:31:23.699Z,8.35
2023-02-21T04:33:54.890Z,7.40
2023-02-21T04:36:26.845Z,9.57
2023-02-21T04:38:53.506Z,9.27
2023-02-21T04:41:20.162Z,7.57
2023-02-21T04:43:46.709Z,8.00
2023-02-21T04:46:15.995Z,8.13
2023-02-21T04:48:46.777Z,7.68
2023-02-21T04:51:15.385Z,8.10
2023-02-21T04:53:42.040Z,8.10
2023-02-21T04:56:08.627Z,8.17
2023-02-21T04:58:44.955Z,8.15
2023-02-21T05:01:13.068Z,7.93
2023-02-21T05:03:39.662Z,8.55
2023-02-21T05:06:06.221Z,8.83
2023-02-21T05:08:32.741Z,7.90
2023-02-21T05:10:59.140Z,8.88
2023-02-21T05:13:25.530Z,8.40
2023-02-21T05:15:51.933Z,9.48
2023-02-21T05:18:22.568Z,7.47
2023-02-21T05:20:50.145Z,7.60
2023-02-21T05:23:18.912Z,7.70
2023-02-21T05:25:45.431Z,9.30
2023-02-21T05:28:11.875Z,7.77
2023-02-21T05:30:38.408Z,7.50
2023-02-21T05:33:04.892Z,8.23
2023-02-21T05:35:31.346Z,8.27
2023-02-21T05:37:58.865Z,9.97
2023-02-21T05:40:25.325Z,9.30
2023-02-21T05:42:51.804Z,8.47
2023-02-21T05:45:18.512Z,10.55
2023-02-21T05:47:44.902Z,8.83
2023-02-21T05:50:11.285Z,8.60
2023-02-21T05:52:37.704Z,9.40
2023-02-21T05:55:04.200Z,9.48
2023-02-21T05:57:30.616Z,10.45
2023-02-21T05:59:57.332Z,13.25
2023-02-21T06:02:23.838Z,21.42
2023-02-21T06:04:50.336Z,23.03
2023-02-21T06:07:17.998Z,15.65
2023-02-21T06:09:44.378Z,18.63
2023-02-21T06:12:10.754Z,18.85
2023-02-21T06:14:37.177Z,17.57
2023-02-21T06:17:03.577Z,19.65
2023-02-21T06:19:31.550Z,23.67
2023-02-21T06:21:59.651Z,41.83
2023-02-21T06:24:26.026Z,56.87
2023-02-21T06:26:52.421Z,45.58
2023-02-21T06:29:18.842Z,32.80
2023-02-21T06:31:45.266Z,27.55
2023-02-21T06:34:12.248Z,30.50
2023-02-21T06:36:39.674Z,28.40
2023-02-21T06:39:07.928Z,35.30
2023-02-21T06:41:34.355Z,28.63
2023-02-21T06:44:01.016Z,37.57
2023-02-21T06:46:29.755Z,30.73
2023-02-21T06:48:56.364Z,49.33
2023-02-21T06:51:29.177Z,55.13
2023-02-21T06:53:57.037Z,41.10
2023-02-21T06:56:23.694Z,73.33
2023-02-21T06:58:50.221Z,29.83
2023-02-21T07:01:16.926Z,37.60
2023-02-21T07:03:44.317Z,38.30
2023-02-21T07:06:11.157Z,86.67
2023-02-21T07:08:37.699Z,43.22
2023-02-21T07:11:05.623Z,29.50
2023-02-21T07:13:32.649Z,34.33
2023-02-21T07:15:59.757Z,35.35
2023-02-21T07:18:26.171Z,34.33
2023-02-21T07:20:52.665Z,23.10
2023-02-21T07:23:19.115Z,29.27
2023-02-21T07:25:45.527Z,20.87
2023-02-21T07:28:12.135Z,18.98
2023-02-21T07:30:38.597Z,18.73
2023-02-21T07:33:05.014Z,35.42
2023-02-21T07:35:31.426Z,44.25
2023-02-21T07:37:57.825Z,39.55
2023-02-21T07:40:24.345Z,50.97
2023-02-21T07:42:50.845Z,31.67
2023-02-21T07:45:17.360Z,42.33
2023-02-21T07:47:47.856Z,29.58
2023-02-21T07:50:15.916Z,31.48
2023-02-21T07:52:42.373Z,38.28
2023-02-21T07:55:08.912Z,29.02
2023-02-21T07:57:35.295Z,38.63
2023-02-21T08:00:01.742Z,44.92
2023-02-21T08:02:28.229Z,44.95
2023-02-21T08:04:54.679Z,45.85
2023-02-21T08:07:21.117Z,60.25
2023-02-21T08:09:47.589Z,72.20
2023-02-21T08:12:14.101Z,54.50
2023-02-21T08:14:40.764Z,50.88
2023-02-21T08:17:07.140Z,46.42
2023-02-21T08:19:33.542Z,46.22
2023-02-21T08:21:59.952Z,33.13
2023-02-21T08:24:26.393Z,36.15
2023-02-21T08:26:53.210Z,31.25
2023-02-21T08:29:19.884Z,25.17
2023-02-21T08:31:48.621Z,27.48
2023-02-21T08:34:15.257Z,24.67
2023-02-21T08:36:43.159Z,26.00
2023-02-21T08:39:10.391Z,26.85
2023-02-21T08:41:45.106Z,23.80
2023-02-21T08:44:16.069Z,26.50
2023-02-21T08:46:42.881Z,18.58
2023-02-21T08:49:09.793Z,19.88
2023-02-21T08:51:36.367Z,20.70
2023-02-21T08:54:03.585Z,20.35
2023-02-21T08:56:33.356Z,21.75
2023-02-21T08:59:00.094Z,22.25
2023-02-21T09:01:32.277Z,24.70
2023-02-21T09:03:58.680Z,22.25
2023-02-21T09:06:25.160Z,19.60
2023-02-21T09:08:51.900Z,22.50
2023-02-21T09:11:18.356Z,20.42
2023-02-21T09:13:44.775Z,20.77
2023-02-21T09:16:11.237Z,22.85
2023-02-21T09:18:37.677Z,24.38
2023-02-21T09:21:04.328Z,24.73
2023-02-21T09:23:33.455Z,23.65
2023-02-21T09:25:59.934Z,21.60
2023-02-21T09:28:26.345Z,21.50
2023-02-21T09:30:52.808Z,26.45
2023-02-21T09:33:19.279Z,24.42
2023-02-21T09:35:45.718Z,20.77
2023-02-21T09:38:12.162Z,22.90
2023-02-21T09:40:41.600Z,20.98
2023-02-21T09:43:35.227Z,21.77
2023-02-21T09:46:05.926Z,20.15
2023-02-21T09:48:32.461Z,19.83
2023-02-21T09:51:05.069Z,18.50
2023-02-21T09:53:34.299Z,20.65
2023-02-21T09:56:05.684Z,20.63
2023-02-21T09:58:32.148Z,20.88
2023-02-21T10:01:03.472Z,20.20
2023-02-21T10:03:35.885Z,19.48
2023-02-21T10:06:04.335Z,19.10
2023-02-21T10:08:43.320Z,20.67
2023-02-21T10:11:41.650Z,20.08
2023-02-21T10:14:33.237Z,19.27
2023-02-21T10:17:27.176Z,19.38
2023-02-21T10:19:57.746Z,18.63
2023-02-21T10:22:27.457Z,17.38
2023-02-21T10:24:54.095Z,20.23
2023-02-21T10:27:23.346Z,21.05
2023-02-21T10:29:55.364Z,25.60
2023-02-21T10:32:25.431Z,20.95
2023-02-21T10:34:52.440Z,20.63
2023-02-21T10:37:40.599Z,21.30
2023-02-21T10:40:29.588Z,20.45
2023-02-21T10:43:03.368Z,21.58
2023-02-21T10:45:50.984Z,23.15
2023-02-21T10:48:20.526Z,22.95
2023-02-21T10:50:50.725Z,20.95
2023-02-21T10:53:30.010Z,22.40
2023-02-21T10:56:10.317Z,21.60
2023-02-21T10:58:37.081Z,20.75
2023-02-21T11:01:36.783Z,20.90
2023-02-21T11:04:06.278Z,19.90
2023-02-21T11:06:37.849Z,19.55
2023-02-21T11:09:27.233Z,17.65
2023-02-21T11:12:03.837Z,17.08
2023-02-21T11:14:30.834Z,18.48
2023-02-21T11:17:16.567Z,17.48
2023-02-21T11:19:56.191Z,17.00
2023-02-21T11:22:26.723Z,16.65
2023-02-21T11:24:59.803Z,15.65
2023-02-21T11:27:27.928Z,15.95
2023-02-21T11:29:54.740Z,16.85
2023-02-21T11:32:30.713Z,16.05
2023-02-21T11:35:04.279Z,14.57
2023-02-21T11:37:32.357Z,16.75
2023-02-21T11:40:00.913Z,16.95
2023-02-21T11:42:32.824Z,15.73
2023-02-21T11:45:29.630Z,14.15
2023-02-21T11:48:10.702Z,13.50
2023-02-21T11:50:46.695Z,13.80
2023-02-21T11:53:13.068Z,13.18
2023-02-21T11:55:39.850Z,13.10
2023-02-21T11:58:27.259Z,13.50
2023-02-21T12:01:05.736Z,13.52
2023-02-21T12:04:05.793Z,13.48
2023-02-21T12:06:51.710Z,13.68
2023-02-21T12:09:42.833Z,14.07
2023-02-21T12:12:30.544Z,11.80
2023-02-21T12:15:06.227Z,11.07
2023-02-21T12:17:48.583Z,11.52
2023-02-21T12:20:27.039Z,10.35
2023-02-21T12:23:08.529Z,11.27
2023-02-21T12:26:15.638Z,9.63
2023-02-21T12:28:54.124Z,10.52
2023-02-21T12:31:36.198Z,10.23
2023-02-21T12:34:30.705Z,11.43
2023-02-21T12:37:02.530Z,10.20
2023-02-21T12:39:39.671Z,10.55
2023-02-21T12:42:28.347Z,11.20
2023-02-21T12:45:25.626Z,10.60
2023-02-21T12:47:59.993Z,10.82
2023-02-21T12:50:39.633Z,10.48
2023-02-21T12:53:12.453Z,10.88
2023-02-21T12:55:42.812Z,14.13
2023-02-21T12:58:18.448Z,13.98
2023-02-21T13:00:49.976Z,12.35
2023-02-21T13:03:26.671Z,10.55
2023-02-21T13:06:00.346Z,11.25
2023-02-21T13:08:31.230Z,10.48
2023-02-21T13:11:06.759Z,10.55
2023-02-21T13:13:33.938Z,11.48
2023-02-21T13:16:07.274Z,12.32
2023-02-21T13:18:43.807Z,11.60
2023-02-21T13:21:30.067Z,10.45
2023-02-21T13:24:16.566Z,10.73
2023-02-21T13:27:04.981Z,11.90
2023-02-21T13:29:33.174Z,9.55
2023-02-21T13:31:59.652Z,10.25
2023-02-21T13:34:29.454Z,9.05
2023-02-21T13:37:01.819Z,9.27
2023-02-21T13:39:37.406Z,10.38
2023-02-21T13:42:08.934Z,11.95
2023-02-21T13:44:47.312Z,10.82
2023-02-21T13:47:21.371Z,9.48
2023-02-21T13:49:50.787Z,9.02
2023-02-21T13:52:22.423Z,10.18
2023-02-21T13:55:18.568Z,9.18
2023-02-21T13:57:49.271Z,10.27
2023-02-21T14:00:22.070Z,10.35
2023-02-21T14:03:01.572Z,12.57
2023-02-21T14:05:46.112Z,11.38
2023-02-21T14:08:21.736Z,11.70
2023-02-21T14:10:50.614Z,10.00
2023-02-21T14:13:29.142Z,8.75
2023-02-21T14:16:08.176Z,8.63
2023-02-21T14:18:45.579Z,9.20
2023-02-21T14:21:30.332Z,9.60
2023-02-21T14:24:00.195Z,9.82
2023-02-21T14:26:46.397Z,10.05
2023-02-21T14:29:30.108Z,9.13
2023-02-21T14:32:03.505Z,9.57
2023-02-21T14:34:29.939Z,11.50
2023-02-21T14:37:03.695Z,8.90
2023-02-21T14:39:36.792Z,9.77
2023-02-21T14:42:12.354Z,9.10
2023-02-21T14:45:03.239Z,8.77
2023-02-21T14:47:38.948Z,9.32
2023-02-21T14:50:11.338Z,9.95
2023-02-21T14:52:43.729Z,8.95
2023-02-21T14:55:26.557Z,9.77
2023-02-21T14:58:19.742Z,8.40
2023-02-21T15:01:01.342Z,10.20
2023-02-21T15:03:36.538Z,8.43
2023-02-21T15:06:14.043Z,8.50
2023-02-21T15:08:49.083Z,9.10
2023-02-21T15:11:29.403Z,9.00
2023-02-21T15:14:22.793Z,7.85
2023-02-21T15:16:58.391Z,8.70
2023-02-21T15:19:33.098Z,8.63
2023-02-21T15:22:23.564Z,7.80
2023-02-21T15:25:09.489Z,10.48
2023-02-21T15:27:36.456Z,8.05
2023-02-21T15:30:26.804Z,9.20
2023-02-21T15:33:17.870Z,7.68
2023-02-21T15:35:51.629Z,9.60
2023-02-21T15:38:38.264Z,8.23
2023-02-21T15:41:13.383Z,7.70
2023-02-21T15:43:50.360Z,7.78
2023-02-21T15:46:22.358Z,9.00
2023-02-21T15:48:49.310Z,10.73
2023-02-21T15:51:17.170Z,10.43
2023-02-21T15:53:43.828Z,10.50
2023-02-21T15:56:36.288Z,10.18
2023-02-21T15:59:26.499Z,10.00
2023-02-21T16:02:11.173Z,10.65
2023-02-21T16:04:39.568Z,10.43
2023-02-21T16:07:08.319Z,9.70
2023-02-21T16:09:35.872Z,11.13
2023-02-21T16:12:20.654Z,8.20
2023-02-21T16:15:01.273Z,8.98
2023-02-21T16:17:44.373Z,8.55
2023-02-21T16:20:16.918Z,6.53
2023-02-21T16:23:06.864Z,6.40
2023-02-21T16:25:34.143Z,7.03
2023-02-21T16:28:01.022Z,6.40
2023-02-21T16:30:29.705Z,8.25
2023-02-21T16:33:01.374Z,6.43
2023-02-21T16:35:28.252Z,7.60
2023-02-21T16:37:56.839Z,6.20
2023-02-21T16:40:31.882Z,6.28
2023-02-21T16:42:58.855Z,8.05
2023-02-21T16:45:25.430Z,7.88
2023-02-21T16:48:03.486Z,7.72
2023-02-21T16:50:37.834Z,9.00
2023-02-21T16:53:04.920Z,7.15
2023-02-21T16:55:31.354Z,8.65
2023-02-21T16:58:11.680Z,9.93
2023-02-21T17:00:38.074Z,7.68
2023-02-21T17:03:04.644Z,8.05
2023-02-21T17:05:31.075Z,10.52
2023-02-21T17:07:58.547Z,7.32
2023-02-21T17:10:25.033Z,8.25
2023-02-21T17:12:51.509Z,7.88
2023-02-21T17:15:18.007Z,7.55
2023-02-21T17:17:51.120Z,6.97
2023-02-21T17:20:20.925Z,7.80
2023-02-21T17:22:48.254Z,7.40
2023-02-21T17:25:15.162Z,7.95
2023-02-21T17:27:41.708Z,7.85
2023-02-21T17:30:10.521Z,7.70
2023-02-21T17:32:37.152Z,11.63
2023-02-21T17:35:04.519Z,7.93
2023-02-21T17:37:30.987Z,8.93
2023-02-21T17:39:57.702Z,10.98
2023-02-21T17:42:24.746Z,9.95
2023-02-21T17:44:52.002Z,10.43
2023-02-21T17:47:19.592Z,10.98
2023-02-21T17:49:48.494Z,9.23
2023-02-21T17:52:15.284Z,9.63
2023-02-21T17:54:42.045Z,8.68
2023-02-21T17:57:09.596Z,10.60
2023-02-21T17:59:37.267Z,8.05
2023-02-21T18:02:04.281Z,9.70
2023-02-21T18:04:30.833Z,9.27
2023-02-21T18:06:58.111Z,8.48
2023-02-21T18:09:24.628Z,11.52
2023-02-21T18:11:52.580Z,7.72
2023-02-21T18:14:21.294Z,7.60
2023-02-21T18:16:47.958Z,7.47
2023-02-21T18:19:15.415Z,8.82
2023-02-21T18:21:42.539Z,8.25
2023-02-21T18:24:10.111Z,8.00
2023-02-21T18:26:37.380Z,7.40
2023-02-21T18:29:05.412Z,7.07
2023-02-21T18:31:32.386Z,7.30
2023-02-21T18:33:58.822Z,7.65
2023-02-21T18:36:26.490Z,6.80
2023-02-21T18:38:53.171Z,8.75
2023-02-21T18:41:20.846Z,8.02
2023-02-21T18:43:47.272Z,7.50
2023-02-21T18:46:16.867Z,8.00
2023-02-21T18:48:45.588Z,9.55
2023-02-21T18:51:14.155Z,12.45
2023-02-21T18:53:43.522Z,12.77
2023-02-21T18:56:12.243Z,12.52
2023-02-21T18:58:39.042Z,11.25
2023-02-21T19:01:06.585Z,10.32
2023-02-21T19:03:33.207Z,9.95
2023-02-21T19:05:59.899Z,10.10
2023-02-21T19:08:26.336Z,10.32
2023-02-21T19:10:53.770Z,9.52
2023-02-21T19:13:20.455Z,9.57
2023-02-21T19:15:46.854Z,11.23
2023-02-21T19:18:13.300Z,10.10
2023-02-21T19:20:40.323Z,10.23
2023-02-21T19:23:07.357Z,11.48
2023-02-21T19:25:33.806Z,10.55
2023-02-21T19:28:00.788Z,9.57
2023-02-21T19:30:29.835Z,9.30
2023-02-21T19:32:59.977Z,10.68
2023-02-21T19:35:28.230Z,9.45
2023-02-21T19:37:55.595Z,12.13
2023-02-21T19:40:22.924Z,10.05
2023-02-21T19:42:49.627Z,8.57
2023-02-21T19:45:16.843Z,9.40
2023-02-21T19:47:43.775Z,8.75
2023-02-21T19:50:11.414Z,8.68
2023-02-21T19:52:38.434Z,8.00
2023-02-21T19:55:05.850Z,8.93
2023-02-21T19:57:32.275Z,7.85
2023-02-21T19:59:58.657Z,7.65
2023-02-21T20:02:25.411Z,8.77
2023-02-21T20:04:51.840Z,9.80
2023-02-21T20:07:18.457Z,8.68
2023-02-21T20:09:47.163Z,9.23
2023-02-21T20:12:14.452Z,10.07
2023-02-21T20:14:45.824Z,9.60
2023-02-21T20:17:14.371Z,9.80
2023-02-21T20:19:41.421Z,10.45
2023-02-21T20:22:07.825Z,9.73
2023-02-21T20:24:34.297Z,10.13
2023-02-21T20:27:00.688Z,10.30
2023-02-21T20:29:27.315Z,9.43
2023-02-21T20:31:58.093Z,8.90
2023-02-21T20:34:24.573Z,13.57
2023-02-21T20:36:51.273Z,8.85
2023-02-21T20:39:28.191Z,8.55
2023-02-21T20:42:00.283Z,8.85
2023-02-21T20:44:27.516Z,9.50
2023-02-21T20:46:56.690Z,8.70
2023-02-21T20:49:23.157Z,10.82
2023-02-21T20:51:49.642Z,10.52
2023-02-21T20:54:21.806Z,8.65
2023-02-21T20:56:50.055Z,8.82
2023-02-21T20:59:22.518Z,8.30
2023-02-21T21:01:49.370Z,7.93
2023-02-21T21:04:18.572Z,9.52
2023-02-21T21:06:45.862Z,8.02
2023-02-21T21:09:17.739Z,9.80
2023-02-21T21:11:44.850Z,7.30
2023-02-21T21:14:12.563Z,7.18
2023-02-21T21:16:40.244Z,8.93
2023-02-21T21:19:06.918Z,7.88
2023-02-21T21:21:33.789Z,7.88
2023-02-21T21:24:00.510Z,7.90
2023-02-21T21:26:26.953Z,8.43
2023-02-21T21:28:53.702Z,6.85
2023-02-21T21:31:20.278Z,7.80
2023-02-21T21:33:47.228Z,7.88
2023-02-21T21:36:13.674Z,10.05
2023-02-21T21:38:40.788Z,7.65
2023-02-21T21:41:13.702Z,8.18
2023-02-21T21:43:43.992Z,8.65
2023-02-21T21:46:13.441Z,9.52
2023-02-21T21:48:43.971Z,8.48
2023-02-21T21:51:10.979Z,9.60
2023-02-21T21:53:39.985Z,9.73
2023-02-21T21:56:08.025Z,8.05
2023-02-21T21:58:34.733Z,7.10
2023-02-21T22:01:01.790Z,7.28
2023-02-21T22:03:29.096Z,7.38
2023-02-21T22:06:00.622Z,8.30
2023-02-21T22:08:28.157Z,7.40
2023-02-21T22:10:55.014Z,7.88
2023-02-21T22:13:21.853Z,8.50
2023-02-21T22:15:48.787Z,9.80
2023-02-21T22:18:19.409Z,10.80
2023-02-21T22:20:49.726Z,11.52
2023-02-21T22:23:17.814Z,10.05
2023-02-21T22:25:44.198Z,9.60
2023-02-21T22:28:12.967Z,10.48
2023-02-21T22:30:40.382Z,12.63
2023-02-21T22:33:08.548Z,10.10
2023-02-21T22:35:35.030Z,8.77
2023-02-21T22:38:01.998Z,8.93
2023-02-21T22:40:30.363Z,9.23
2023-02-21T22:43:02.186Z,8.90
2023-02-21T22:45:32.995Z,7.78
2023-02-21T22:47:59.879Z,7.90
2023-02-21T22:50:26.647Z,8.25
2023-02-21T22:52:58.031Z,8.23
2023-02-21T22:55:26.398Z,8.18
2023-02-21T22:57:54.661Z,7.53
2023-02-21T23:00:27.134Z,7.63
2023-02-21T23:02:53.639Z,9.25
2023-02-21T23:05:21.672Z,8.05
2023-02-21T23:07:49.550Z,8.52
2023-02-21T23:10:18.609Z,8.07
2023-02-21T23:12:48.460Z,7.18
2023-02-21T23:15:18.422Z,7.75
2023-02-21T23:17:49.286Z,8.38
2023-02-21T23:20:22.145Z,7.47
2023-02-21T23:22:51.764Z,11.90
2023-02-21T23:25:22.960Z,13.57
2023-02-21T23:27:50.973Z,12.35
2023-02-21T23:30:19.088Z,14.93
2023-02-21T23:32:46.903Z,13.30
2023-02-21T23:35:16.670Z,15.82
2023-02-21T23:37:46.222Z,16.35
2023-02-21T23:40:22.512Z,14.75
2023-02-21T23:42:51.606Z,16.67
2023-02-21T23:45:22.387Z,14.63
2023-02-21T23:47:53.963Z,12.88
2023-02-21T23:50:30.326Z,12.23
2023-02-21T23:52:58.849Z,13.48
2023-02-21T23:55:28.839Z,12.02
2023-02-21T23:58:03.538Z,11.80
